Rocky Mount, VA (24151)

10:28 AM EDT on August 30, 2015 (GMT -0400)
Doe Run | | Change Station
CLOSE
Current Station
Personal Weather Station
Location: Rocky Mount, VA
Elevation: 1099 ft
Nearby Weather Stations

Elev 1099 ft 36.97 °N, 79.85 °W | Updated 7 seconds ago

Overcast
Overcast
82.6 °F
Feels Like 86 °F
N
0.0
Wind Variable Wind from ESE
Gusts 0.0 mph

Today
High -- | Low -- °F
--% Chance of Precip.
Yesterday
High -- | Low -- °F
Precip. -- in
6:48 AM 7:51 PM
Full, 99% visible
Pressure 30.18 in
Visibility 10.0 miles
Clouds Scattered Clouds 15000 ft
Overcast 20000 ft
Heat Index 86 °F
Dew Point 69 °F
Humidity 63%
Rainfall 0.00 in
Snow Depth Not available.
UV 1 out of 12
Pollen 8.70 out of 12
Air Quality Not available.
Flu Activity Not available.
METAR KROA 301354Z 26003KT 10SM SCT150 OVC200 22/17 A3021 RMK AO2 SLP219 T02220167
Pressure 30.18 in
Visibility 10.0 miles
Clouds Scattered Clouds 15000 ft
Overcast 20000 ft
Heat Index 86 °F
Dew Point 69 °F
Humidity 63%
Rainfall 0.00 in
Snow Depth Not available.
UV 1 out of 12
Pollen 8.70 out of 12
Air Quality Not available.
Flu Activity Not available.
METAR KROA 301354Z 26003KT 10SM SCT150 OVC200 22/17 A3021 RMK AO2 SLP219 T02220167

10-Day Weather Forecast

×

Almanac

Astronomy

Aug. 30, 2015 Rise Set
Actual Time
Civil Twilight
Nautical Twilight
Astronomical Twilight
Moon
Length of Visible Light
Length of Day
Tomorrow will be .
, % of the Moon is Illuminated

Today's Extremes

State Highs State Lows

Community

WunderPhotos

Upload Photos

1,850,974 photos uploaded!

WunderBlogs® & News

Nearby

Air Quality

  Air Quality AQ Index Pollutant
Not available.

Snow Depth

Station Depth Elevation

Earthquake Activity

City Distance Mag. Time & Date
Minimum magnitude displayed is 2.5.

Coastal Water Temperatures

Place Temperature

Stations

Nearby Weather Stations

Station Location Temp. Windchill Dew Point Humidity Wind Precip. Elev Updated Type